sensor_id;sensor_type;location;lat;lon;timestamp;P1;durP1;ratioP1;P2;durP2;ratioP2
7116;SDS011;3600;48.568;7.870;2023-07-13T00:00:47;2.00;;;1.10;;
7116;SDS011;3600;48.568;7.870;2023-07-13T00:03:14;2.83;;;1.27;;
7116;SDS011;3600;48.568;7.870;2023-07-13T00:05:41;3.78;;;1.00;;
7116;SDS011;3600;48.568;7.870;2023-07-13T00:08:08;2.08;;;1.10;;
7116;SDS011;3600;48.568;7.870;2023-07-13T00:10:38;1.23;;;0.95;;
7116;SDS011;3600;48.568;7.870;2023-07-13T00:13:08;3.42;;;1.20;;
7116;SDS011;3600;48.568;7.870;2023-07-13T00:15:36;1.73;;;1.10;;
7116;SDS011;3600;48.568;7.870;2023-07-13T00:18:03;1.77;;;1.00;;
7116;SDS011;3600;48.568;7.870;2023-07-13T00:20:30;1.90;;;0.90;;
7116;SDS011;3600;48.568;7.870;2023-07-13T00:22:56;1.50;;;1.13;;
7116;SDS011;3600;48.568;7.870;2023-07-13T00:25:24;2.03;;;1.23;;
7116;SDS011;3600;48.568;7.870;2023-07-13T00:27:52;1.77;;;1.00;;
7116;SDS011;3600;48.568;7.870;2023-07-13T00:30:19;2.55;;;1.50;;
7116;SDS011;3600;48.568;7.870;2023-07-13T00:32:45;4.45;;;2.08;;
7116;SDS011;3600;48.568;7.870;2023-07-13T00:35:13;3.50;;;1.75;;
7116;SDS011;3600;48.568;7.870;2023-07-13T00:37:41;2.75;;;1.50;;
7116;SDS011;3600;48.568;7.870;2023-07-13T00:40:10;1.75;;;1.52;;
7116;SDS011;3600;48.568;7.870;2023-07-13T00:42:38;2.58;;;1.75;;
7116;SDS011;3600;48.568;7.870;2023-07-13T00:47:39;1.58;;;1.30;;
7116;SDS011;3600;48.568;7.870;2023-07-13T00:50:07;6.35;;;1.23;;
7116;SDS011;3600;48.568;7.870;2023-07-13T00:52:39;2.60;;;1.15;;
7116;SDS011;3600;48.568;7.870;2023-07-13T00:55:09;1.98;;;1.40;;
7116;SDS011;3600;48.568;7.870;2023-07-13T00:57:38;3.63;;;1.25;;
7116;SDS011;3600;48.568;7.870;2023-07-13T01:00:06;4.47;;;2.03;;
7116;SDS011;3600;48.568;7.870;2023-07-13T01:02:35;2.72;;;1.45;;
7116;SDS011;3600;48.568;7.870;2023-07-13T01:05:23;1.45;;;1.17;;
7116;SDS011;3600;48.568;7.870;2023-07-13T01:07:51;5.07;;;1.35;;
7116;SDS011;3600;48.568;7.870;2023-07-13T01:10:23;2.25;;;1.30;;
7116;SDS011;3600;48.568;7.870;2023-07-13T01:12:51;1.80;;;1.30;;
7116;SDS011;3600;48.568;7.870;2023-07-13T01:15:39;1.85;;;1.33;;
7116;SDS011;3600;48.568;7.870;2023-07-13T01:18:16;2.40;;;1.48;;
7116;SDS011;3600;48.568;7.870;2023-07-13T01:20:52;1.98;;;1.20;;
7116;SDS011;3600;48.568;7.870;2023-07-13T01:23:30;4.57;;;1.27;;
7116;SDS011;3600;48.568;7.870;2023-07-13T01:25:59;3.28;;;1.23;;
7116;SDS011;3600;48.568;7.870;2023-07-13T01:28:27;4.10;;;1.48;;
7116;SDS011;3600;48.568;7.870;2023-07-13T01:30:55;3.20;;;1.40;;
7116;SDS011;3600;48.568;7.870;2023-07-13T01:33:26;1.77;;;1.27;;
7116;SDS011;3600;48.568;7.870;2023-07-13T01:35:53;3.72;;;1.30;;
7116;SDS011;3600;48.568;7.870;2023-07-13T01:38:24;4.68;;;1.50;;
7116;SDS011;3600;48.568;7.870;2023-07-13T01:40:52;3.95;;;1.35;;
7116;SDS011;3600;48.568;7.870;2023-07-13T01:43:20;2.90;;;1.33;;
7116;SDS011;3600;48.568;7.870;2023-07-13T01:45:47;2.42;;;1.30;;
7116;SDS011;3600;48.568;7.870;2023-07-13T01:48:15;2.28;;;1.50;;
7116;SDS011;3600;48.568;7.870;2023-07-13T01:50:42;1.63;;;1.52;;
7116;SDS011;3600;48.568;7.870;2023-07-13T01:53:09;1.38;;;1.27;;
7116;SDS011;3600;48.568;7.870;2023-07-13T01:55:37;1.52;;;1.38;;
7116;SDS011;3600;48.568;7.870;2023-07-13T01:58:04;2.15;;;1.52;;
7116;SDS011;3600;48.568;7.870;2023-07-13T02:00:33;1.77;;;1.40;;
7116;SDS011;3600;48.568;7.870;2023-07-13T02:03:00;3.78;;;1.77;;
7116;SDS011;3600;48.568;7.870;2023-07-13T02:05:27;3.97;;;1.30;;
7116;SDS011;3600;48.568;7.870;2023-07-13T02:07:55;2.22;;;1.70;;
7116;SDS011;3600;48.568;7.870;2023-07-13T02:10:22;2.35;;;1.40;;
7116;SDS011;3600;48.568;7.870;2023-07-13T02:12:50;1.58;;;1.48;;
7116;SDS011;3600;48.568;7.870;2023-07-13T02:15:17;2.45;;;1.48;;
7116;SDS011;3600;48.568;7.870;2023-07-13T02:17:45;4.50;;;1.77;;
7116;SDS011;3600;48.568;7.870;2023-07-13T02:20:16;2.55;;;1.60;;
7116;SDS011;3600;48.568;7.870;2023-07-13T02:22:43;3.42;;;1.65;;
7116;SDS011;3600;48.568;7.870;2023-07-13T02:25:11;1.70;;;1.30;;
7116;SDS011;3600;48.568;7.870;2023-07-13T02:27:44;3.03;;;1.80;;
7116;SDS011;3600;48.568;7.870;2023-07-13T02:30:12;2.40;;;1.38;;
7116;SDS011;3600;48.568;7.870;2023-07-13T02:32:40;1.58;;;1.40;;
7116;SDS011;3600;48.568;7.870;2023-07-13T02:35:14;1.98;;;1.80;;
7116;SDS011;3600;48.568;7.870;2023-07-13T02:37:42;2.63;;;1.30;;
7116;SDS011;3600;48.568;7.870;2023-07-13T02:40:10;1.60;;;1.50;;
7116;SDS011;3600;48.568;7.870;2023-07-13T02:42:37;3.20;;;1.63;;
7116;SDS011;3600;48.568;7.870;2023-07-13T02:45:07;2.45;;;1.30;;
7116;SDS011;3600;48.568;7.870;2023-07-13T02:47:36;2.78;;;1.83;;
7116;SDS011;3600;48.568;7.870;2023-07-13T02:50:05;3.78;;;1.65;;
7116;SDS011;3600;48.568;7.870;2023-07-13T02:52:34;4.00;;;1.80;;
7116;SDS011;3600;48.568;7.870;2023-07-13T02:55:01;1.50;;;1.40;;
7116;SDS011;3600;48.568;7.870;2023-07-13T02:57:29;1.90;;;1.80;;
7116;SDS011;3600;48.568;7.870;2023-07-13T02:59:59;1.70;;;1.60;;
7116;SDS011;3600;48.568;7.870;2023-07-13T03:02:27;3.00;;;1.80;;
7116;SDS011;3600;48.568;7.870;2023-07-13T03:04:55;2.85;;;1.70;;
7116;SDS011;3600;48.568;7.870;2023-07-13T03:07:23;1.90;;;1.63;;
7116;SDS011;3600;48.568;7.870;2023-07-13T03:09:56;4.25;;;1.50;;
7116;SDS011;3600;48.568;7.870;2023-07-13T03:12:24;1.70;;;1.60;;
7116;SDS011;3600;48.568;7.870;2023-07-13T03:14:51;2.53;;;2.17;;
7116;SDS011;3600;48.568;7.870;2023-07-13T03:17:19;4.63;;;2.33;;
7116;SDS011;3600;48.568;7.870;2023-07-13T03:19:46;2.90;;;2.00;;
7116;SDS011;3600;48.568;7.870;2023-07-13T03:22:16;2.33;;;1.98;;
7116;SDS011;3600;48.568;7.870;2023-07-13T03:24:44;4.07;;;1.92;;
7116;SDS011;3600;48.568;7.870;2023-07-13T03:27:12;2.72;;;2.20;;
7116;SDS011;3600;48.568;7.870;2023-07-13T03:29:39;4.32;;;1.83;;
7116;SDS011;3600;48.568;7.870;2023-07-13T03:32:07;3.58;;;2.15;;
7116;SDS011;3600;48.568;7.870;2023-07-13T03:34:34;1.95;;;1.80;;
7116;SDS011;3600;48.568;7.870;2023-07-13T03:37:02;5.88;;;1.80;;
7116;SDS011;3600;48.568;7.870;2023-07-13T03:39:29;3.20;;;1.67;;
7116;SDS011;3600;48.568;7.870;2023-07-13T03:41:59;1.70;;;1.60;;
7116;SDS011;3600;48.568;7.870;2023-07-13T03:44:26;2.67;;;2.10;;
7116;SDS011;3600;48.568;7.870;2023-07-13T03:46:53;5.47;;;2.20;;
7116;SDS011;3600;48.568;7.870;2023-07-13T03:49:20;3.20;;;2.00;;
7116;SDS011;3600;48.568;7.870;2023-07-13T03:51:48;2.92;;;2.20;;
7116;SDS011;3600;48.568;7.870;2023-07-13T03:54:19;1.70;;;1.42;;
7116;SDS011;3600;48.568;7.870;2023-07-13T03:56:47;1.92;;;1.73;;
7116;SDS011;3600;48.568;7.870;2023-07-13T03:59:14;3.65;;;2.08;;
7116;SDS011;3600;48.568;7.870;2023-07-13T04:01:43;2.20;;;1.98;;
7116;SDS011;3600;48.568;7.870;2023-07-13T04:04:10;4.35;;;1.60;;
7116;SDS011;3600;48.568;7.870;2023-07-13T04:06:38;2.70;;;1.98;;
7116;SDS011;3600;48.568;7.870;2023-07-13T04:09:05;2.17;;;1.90;;
7116;SDS011;3600;48.568;7.870;2023-07-13T04:11:33;2.13;;;1.90;;
7116;SDS011;3600;48.568;7.870;2023-07-13T04:14:03;2.88;;;2.13;;
7116;SDS011;3600;48.568;7.870;2023-07-13T04:16:30;1.95;;;1.85;;
7116;SDS011;3600;48.568;7.870;2023-07-13T04:18:58;3.85;;;1.98;;
7116;SDS011;3600;48.568;7.870;2023-07-13T04:21:30;3.67;;;1.80;;
7116;SDS011;3600;48.568;7.870;2023-07-13T04:23:58;3.95;;;2.10;;
7116;SDS011;3600;48.568;7.870;2023-07-13T04:26:25;2.78;;;1.83;;
7116;SDS011;3600;48.568;7.870;2023-07-13T04:28:53;2.08;;;1.65;;
7116;SDS011;3600;48.568;7.870;2023-07-13T04:31:19;3.63;;;1.95;;
7116;SDS011;3600;48.568;7.870;2023-07-13T04:33:47;2.05;;;1.85;;
7116;SDS011;3600;48.568;7.870;2023-07-13T04:36:16;1.80;;;1.60;;
7116;SDS011;3600;48.568;7.870;2023-07-13T04:38:43;2.03;;;1.65;;
7116;SDS011;3600;48.568;7.870;2023-07-13T04:41:10;4.97;;;2.05;;
7116;SDS011;3600;48.568;7.870;2023-07-13T04:43:38;2.50;;;2.13;;
7116;SDS011;3600;48.568;7.870;2023-07-13T04:46:06;3.83;;;2.25;;
7116;SDS011;3600;48.568;7.870;2023-07-13T04:48:35;2.55;;;1.83;;
7116;SDS011;3600;48.568;7.870;2023-07-13T04:51:03;3.10;;;2.00;;
7116;SDS011;3600;48.568;7.870;2023-07-13T04:53:30;1.90;;;1.70;;
7116;SDS011;3600;48.568;7.870;2023-07-13T04:55:58;3.00;;;1.70;;
7116;SDS011;3600;48.568;7.870;2023-07-13T04:58:27;2.65;;;2.00;;
7116;SDS011;3600;48.568;7.870;2023-07-13T05:01:00;3.35;;;2.20;;
7116;SDS011;3600;48.568;7.870;2023-07-13T05:03:28;2.58;;;2.35;;
7116;SDS011;3600;48.568;7.870;2023-07-13T05:05:57;2.78;;;2.25;;
7116;SDS011;3600;48.568;7.870;2023-07-13T05:08:26;3.97;;;2.78;;
7116;SDS011;3600;48.568;7.870;2023-07-13T05:10:53;3.90;;;2.72;;
7116;SDS011;3600;48.568;7.870;2023-07-13T05:13:21;3.00;;;2.53;;
7116;SDS011;3600;48.568;7.870;2023-07-13T05:15:58;4.50;;;2.38;;
7116;SDS011;3600;48.568;7.870;2023-07-13T05:18:29;2.92;;;2.03;;
7116;SDS011;3600;48.568;7.870;2023-07-13T05:21:01;3.67;;;1.95;;
7116;SDS011;3600;48.568;7.870;2023-07-13T05:23:30;3.80;;;2.60;;
7116;SDS011;3600;48.568;7.870;2023-07-13T05:25:59;3.15;;;2.10;;
7116;SDS011;3600;48.568;7.870;2023-07-13T05:28:26;2.55;;;2.35;;
7116;SDS011;3600;48.568;7.870;2023-07-13T05:30:55;3.38;;;2.35;;
7116;SDS011;3600;48.568;7.870;2023-07-13T05:33:23;2.53;;;2.33;;
7116;SDS011;3600;48.568;7.870;2023-07-13T05:35:50;2.20;;;2.00;;
7116;SDS011;3600;48.568;7.870;2023-07-13T05:38:17;3.40;;;2.17;;
7116;SDS011;3600;48.568;7.870;2023-07-13T05:40:44;4.68;;;2.17;;
7116;SDS011;3600;48.568;7.870;2023-07-13T05:43:12;3.53;;;2.13;;
7116;SDS011;3600;48.568;7.870;2023-07-13T05:45:40;3.72;;;2.45;;
7116;SDS011;3600;48.568;7.870;2023-07-13T05:48:08;4.78;;;2.08;;
7116;SDS011;3600;48.568;7.870;2023-07-13T05:50:35;3.05;;;2.60;;
7116;SDS011;3600;48.568;7.870;2023-07-13T05:53:02;3.80;;;2.40;;
7116;SDS011;3600;48.568;7.870;2023-07-13T05:55:28;6.10;;;2.40;;
7116;SDS011;3600;48.568;7.870;2023-07-13T05:57:56;6.10;;;2.70;;
7116;SDS011;3600;48.568;7.870;2023-07-13T06:00:24;3.88;;;2.38;;
7116;SDS011;3600;48.568;7.870;2023-07-13T06:02:51;4.28;;;2.47;;
7116;SDS011;3600;48.568;7.870;2023-07-13T06:05:19;6.25;;;2.53;;
7116;SDS011;3600;48.568;7.870;2023-07-13T06:07:45;4.85;;;2.95;;
7116;SDS011;3600;48.568;7.870;2023-07-13T06:10:12;3.50;;;2.22;;
7116;SDS011;3600;48.568;7.870;2023-07-13T06:12:39;6.65;;;2.72;;
7116;SDS011;3600;48.568;7.870;2023-07-13T06:15:06;3.80;;;2.65;;
7116;SDS011;3600;48.568;7.870;2023-07-13T06:17:34;6.78;;;2.65;;
7116;SDS011;3600;48.568;7.870;2023-07-13T06:20:03;4.93;;;2.20;;
7116;SDS011;3600;48.568;7.870;2023-07-13T06:22:31;3.67;;;2.25;;
7116;SDS011;3600;48.568;7.870;2023-07-13T06:24:58;5.03;;;2.75;;
7116;SDS011;3600;48.568;7.870;2023-07-13T06:27:25;3.00;;;2.20;;
7116;SDS011;3600;48.568;7.870;2023-07-13T06:29:55;3.28;;;2.10;;
7116;SDS011;3600;48.568;7.870;2023-07-13T06:32:22;2.75;;;1.98;;
7116;SDS011;3600;48.568;7.870;2023-07-13T06:34:49;2.28;;;1.77;;
7116;SDS011;3600;48.568;7.870;2023-07-13T06:37:18;7.47;;;2.25;;
7116;SDS011;3600;48.568;7.870;2023-07-13T06:39:46;2.55;;;2.10;;
7116;SDS011;3600;48.568;7.870;2023-07-13T06:42:12;3.65;;;2.00;;
7116;SDS011;3600;48.568;7.870;2023-07-13T06:44:40;3.92;;;2.00;;
7116;SDS011;3600;48.568;7.870;2023-07-13T06:47:08;2.03;;;1.90;;
7116;SDS011;3600;48.568;7.870;2023-07-13T06:49:35;2.67;;;2.10;;
7116;SDS011;3600;48.568;7.870;2023-07-13T06:52:02;2.97;;;2.05;;
7116;SDS011;3600;48.568;7.870;2023-07-13T06:54:29;8.13;;;2.10;;
7116;SDS011;3600;48.568;7.870;2023-07-13T06:56:56;2.08;;;1.88;;
7116;SDS011;3600;48.568;7.870;2023-07-13T06:59:22;6.85;;;2.10;;
7116;SDS011;3600;48.568;7.870;2023-07-13T07:01:49;3.92;;;2.33;;
7116;SDS011;3600;48.568;7.870;2023-07-13T07:04:16;3.55;;;1.90;;
7116;SDS011;3600;48.568;7.870;2023-07-13T07:06:43;2.85;;;2.15;;
7116;SDS011;3600;48.568;7.870;2023-07-13T07:09:11;1.98;;;1.80;;
7116;SDS011;3600;48.568;7.870;2023-07-13T07:11:38;3.60;;;2.20;;
7116;SDS011;3600;48.568;7.870;2023-07-13T07:14:25;4.85;;;2.10;;
7116;SDS011;3600;48.568;7.870;2023-07-13T07:16:52;5.85;;;2.03;;
7116;SDS011;3600;48.568;7.870;2023-07-13T07:19:19;4.80;;;2.20;;
7116;SDS011;3600;48.568;7.870;2023-07-13T07:21:46;8.55;;;2.30;;
7116;SDS011;3600;48.568;7.870;2023-07-13T07:24:13;2.63;;;2.25;;
7116;SDS011;3600;48.568;7.870;2023-07-13T07:26:40;3.75;;;2.00;;
7116;SDS011;3600;48.568;7.870;2023-07-13T07:29:10;3.83;;;1.92;;
7116;SDS011;3600;48.568;7.870;2023-07-13T07:31:40;3.63;;;1.80;;
7116;SDS011;3600;48.568;7.870;2023-07-13T07:34:09;3.38;;;1.88;;
7116;SDS011;3600;48.568;7.870;2023-07-13T07:36:36;4.90;;;1.95;;
7116;SDS011;3600;48.568;7.870;2023-07-13T07:39:06;2.47;;;1.95;;
7116;SDS011;3600;48.568;7.870;2023-07-13T07:41:33;3.22;;;2.00;;
7116;SDS011;3600;48.568;7.870;2023-07-13T07:44:04;2.65;;;1.92;;
7116;SDS011;3600;48.568;7.870;2023-07-13T07:46:34;5.40;;;1.77;;
7116;SDS011;3600;48.568;7.870;2023-07-13T07:49:05;1.45;;;1.35;;
7116;SDS011;3600;48.568;7.870;2023-07-13T07:51:32;2.97;;;1.92;;
7116;SDS011;3600;48.568;7.870;2023-07-13T07:54:00;3.00;;;1.58;;
7116;SDS011;3600;48.568;7.870;2023-07-13T07:56:28;3.28;;;2.10;;
7116;SDS011;3600;48.568;7.870;2023-07-13T07:58:58;2.78;;;1.55;;
7116;SDS011;3600;48.568;7.870;2023-07-13T08:01:27;2.55;;;2.03;;
7116;SDS011;3600;48.568;7.870;2023-07-13T08:03:57;2.65;;;1.50;;
7116;SDS011;3600;48.568;7.870;2023-07-13T08:06:27;4.22;;;1.70;;
7116;SDS011;3600;48.568;7.870;2023-07-13T08:09:10;4.65;;;1.92;;
7116;SDS011;3600;48.568;7.870;2023-07-13T08:11:37;2.10;;;2.00;;
7116;SDS011;3600;48.568;7.870;2023-07-13T08:14:09;6.50;;;1.55;;
7116;SDS011;3600;48.568;7.870;2023-07-13T08:16:36;2.22;;;1.80;;
7116;SDS011;3600;48.568;7.870;2023-07-13T08:19:03;1.67;;;1.30;;
7116;SDS011;3600;48.568;7.870;2023-07-13T08:21:30;2.38;;;1.85;;
7116;SDS011;3600;48.568;7.870;2023-07-13T08:23:57;3.58;;;1.58;;
7116;SDS011;3600;48.568;7.870;2023-07-13T08:26:24;3.97;;;1.55;;
7116;SDS011;3600;48.568;7.870;2023-07-13T08:28:53;3.05;;;1.80;;
7116;SDS011;3600;48.568;7.870;2023-07-13T08:31:24;3.67;;;1.77;;
7116;SDS011;3600;48.568;7.870;2023-07-13T08:33:51;3.25;;;1.58;;
7116;SDS011;3600;48.568;7.870;2023-07-13T08:36:18;5.35;;;1.67;;
7116;SDS011;3600;48.568;7.870;2023-07-13T08:38:45;1.60;;;1.50;;
7116;SDS011;3600;48.568;7.870;2023-07-13T08:41:14;1.80;;;1.55;;
7116;SDS011;3600;48.568;7.870;2023-07-13T08:43:45;3.53;;;1.60;;
7116;SDS011;3600;48.568;7.870;2023-07-13T08:46:35;1.85;;;1.55;;
7116;SDS011;3600;48.568;7.870;2023-07-13T08:51:40;3.33;;;1.40;;
7116;SDS011;3600;48.568;7.870;2023-07-13T08:54:35;3.40;;;1.52;;
7116;SDS011;3600;48.568;7.870;2023-07-13T08:57:16;1.48;;;1.38;;
7116;SDS011;3600;48.568;7.870;2023-07-13T08:59:51;1.40;;;1.30;;
7116;SDS011;3600;48.568;7.870;2023-07-13T09:05:25;1.70;;;1.50;;
7116;SDS011;3600;48.568;7.870;2023-07-13T09:08:01;4.70;;;1.65;;
7116;SDS011;3600;48.568;7.870;2023-07-13T09:14:01;2.55;;;1.55;;
7116;SDS011;3600;48.568;7.870;2023-07-13T09:16:48;2.05;;;1.33;;
7116;SDS011;3600;48.568;7.870;2023-07-13T09:19:21;4.00;;;1.27;;
7116;SDS011;3600;48.568;7.870;2023-07-13T09:21:55;1.50;;;1.35;;
7116;SDS011;3600;48.568;7.870;2023-07-13T09:24:28;1.67;;;1.30;;
7116;SDS011;3600;48.568;7.870;2023-07-13T09:27:15;3.50;;;1.48;;
7116;SDS011;3600;48.568;7.870;2023-07-13T09:29:47;2.35;;;1.40;;
7116;SDS011;3600;48.568;7.870;2023-07-13T09:32:21;2.55;;;1.50;;
7116;SDS011;3600;48.568;7.870;2023-07-13T09:34:51;4.13;;;1.58;;
7116;SDS011;3600;48.568;7.870;2023-07-13T09:37:20;2.55;;;1.33;;
7116;SDS011;3600;48.568;7.870;2023-07-13T09:39:56;1.85;;;1.23;;
7116;SDS011;3600;48.568;7.870;2023-07-13T09:42:26;2.47;;;1.40;;
7116;SDS011;3600;48.568;7.870;2023-07-13T09:44:56;3.15;;;1.73;;
7116;SDS011;3600;48.568;7.870;2023-07-13T09:47:26;3.75;;;1.50;;
7116;SDS011;3600;48.568;7.870;2023-07-13T09:50:00;3.28;;;1.60;;
7116;SDS011;3600;48.568;7.870;2023-07-13T09:52:42;3.33;;;1.50;;
7116;SDS011;3600;48.568;7.870;2023-07-13T09:57:57;5.53;;;1.73;;
7116;SDS011;3600;48.568;7.870;2023-07-13T10:00:27;2.17;;;1.58;;
7116;SDS011;3600;48.568;7.870;2023-07-13T10:05:49;4.22;;;1.45;;
7116;SDS011;3600;48.568;7.870;2023-07-13T10:08:24;2.67;;;1.15;;
7116;SDS011;3600;48.568;7.870;2023-07-13T10:10:58;1.75;;;1.50;;
7116;SDS011;3600;48.568;7.870;2023-07-13T10:13:32;3.33;;;1.60;;
7116;SDS011;3600;48.568;7.870;2023-07-13T10:16:06;4.25;;;1.60;;
7116;SDS011;3600;48.568;7.870;2023-07-13T10:18:38;2.47;;;1.70;;
7116;SDS011;3600;48.568;7.870;2023-07-13T10:21:18;2.65;;;1.92;;
7116;SDS011;3600;48.568;7.870;2023-07-13T10:23:54;4.07;;;1.55;;
7116;SDS011;3600;48.568;7.870;2023-07-13T10:26:25;4.22;;;2.03;;
7116;SDS011;3600;48.568;7.870;2023-07-13T10:29:04;2.20;;;1.40;;
7116;SDS011;3600;48.568;7.870;2023-07-13T10:31:40;4.60;;;1.58;;
7116;SDS011;3600;48.568;7.870;2023-07-13T10:34:09;3.28;;;1.75;;
7116;SDS011;3600;48.568;7.870;2023-07-13T10:39:16;2.42;;;1.60;;
7116;SDS011;3600;48.568;7.870;2023-07-13T10:41:54;3.50;;;1.67;;
7116;SDS011;3600;48.568;7.870;2023-07-13T10:44:26;1.90;;;1.63;;
7116;SDS011;3600;48.568;7.870;2023-07-13T10:46:57;4.22;;;1.60;;
7116;SDS011;3600;48.568;7.870;2023-07-13T10:49:27;3.10;;;1.83;;
7116;SDS011;3600;48.568;7.870;2023-07-13T10:51:55;4.25;;;1.90;;
7116;SDS011;3600;48.568;7.870;2023-07-13T10:54:26;4.35;;;1.75;;
7116;SDS011;3600;48.568;7.870;2023-07-13T10:59:38;2.00;;;1.63;;
7116;SDS011;3600;48.568;7.870;2023-07-13T11:04:46;4.20;;;1.40;;
7116;SDS011;3600;48.568;7.870;2023-07-13T11:07:19;3.42;;;1.65;;
7116;SDS011;3600;48.568;7.870;2023-07-13T11:09:52;1.75;;;1.50;;
7116;SDS011;3600;48.568;7.870;2023-07-13T11:20:09;3.95;;;1.80;;
7116;SDS011;3600;48.568;7.870;2023-07-13T11:25:31;1.73;;;1.60;;
7116;SDS011;3600;48.568;7.870;2023-07-13T11:28:04;3.33;;;1.75;;
7116;SDS011;3600;48.568;7.870;2023-07-13T11:31:12;2.85;;;1.45;;
7116;SDS011;3600;48.568;7.870;2023-07-13T11:36:07;3.80;;;2.03;;
7116;SDS011;3600;48.568;7.870;2023-07-13T11:38:40;2.15;;;1.55;;
7116;SDS011;3600;48.568;7.870;2023-07-13T11:41:31;5.47;;;1.75;;
7116;SDS011;3600;48.568;7.870;2023-07-13T11:44:04;2.72;;;1.35;;
7116;SDS011;3600;48.568;7.870;2023-07-13T11:46:34;2.25;;;1.58;;
7116;SDS011;3600;48.568;7.870;2023-07-13T11:49:01;4.20;;;1.73;;
7116;SDS011;3600;48.568;7.870;2023-07-13T11:51:33;3.30;;;1.60;;
7116;SDS011;3600;48.568;7.870;2023-07-13T11:54:05;3.20;;;1.50;;
7116;SDS011;3600;48.568;7.870;2023-07-13T11:56:41;2.72;;;1.20;;
7116;SDS011;3600;48.568;7.870;2023-07-13T11:59:08;1.73;;;1.38;;
7116;SDS011;3600;48.568;7.870;2023-07-13T12:01:43;3.15;;;1.30;;
7116;SDS011;3600;48.568;7.870;2023-07-13T12:04:19;3.03;;;1.05;;
7116;SDS011;3600;48.568;7.870;2023-07-13T12:07:17;2.30;;;1.38;;
7116;SDS011;3600;48.568;7.870;2023-07-13T12:09:45;2.03;;;1.40;;
7116;SDS011;3600;48.568;7.870;2023-07-13T12:12:13;2.03;;;1.45;;
7116;SDS011;3600;48.568;7.870;2023-07-13T12:14:41;2.28;;;1.30;;
7116;SDS011;3600;48.568;7.870;2023-07-13T12:17:29;2.45;;;1.33;;
7116;SDS011;3600;48.568;7.870;2023-07-13T12:19:55;2.83;;;1.50;;
7116;SDS011;3600;48.568;7.870;2023-07-13T12:22:22;1.90;;;1.73;;
7116;SDS011;3600;48.568;7.870;2023-07-13T12:24:49;3.90;;;1.45;;
7116;SDS011;3600;48.568;7.870;2023-07-13T12:27:22;2.85;;;1.25;;
7116;SDS011;3600;48.568;7.870;2023-07-13T12:30:01;4.85;;;1.50;;
7116;SDS011;3600;48.568;7.870;2023-07-13T12:32:32;1.58;;;1.08;;
7116;SDS011;3600;48.568;7.870;2023-07-13T12:35:13;4.78;;;1.38;;
7116;SDS011;3600;48.568;7.870;2023-07-13T12:37:42;2.45;;;1.73;;
7116;SDS011;3600;48.568;7.870;2023-07-13T12:40:13;3.22;;;1.10;;
7116;SDS011;3600;48.568;7.870;2023-07-13T12:42:41;1.45;;;1.10;;
7116;SDS011;3600;48.568;7.870;2023-07-13T12:45:19;4.30;;;1.48;;
7116;SDS011;3600;48.568;7.870;2023-07-13T12:47:48;1.65;;;1.35;;
7116;SDS011;3600;48.568;7.870;2023-07-13T12:50:21;3.28;;;1.42;;
7116;SDS011;3600;48.568;7.870;2023-07-13T12:52:53;1.70;;;1.15;;
7116;SDS011;3600;48.568;7.870;2023-07-13T12:55:21;2.90;;;1.20;;
7116;SDS011;3600;48.568;7.870;2023-07-13T12:57:51;2.25;;;1.58;;
7116;SDS011;3600;48.568;7.870;2023-07-13T13:02:53;1.98;;;1.40;;
7116;SDS011;3600;48.568;7.870;2023-07-13T13:05:40;2.28;;;1.33;;
7116;SDS011;3600;48.568;7.870;2023-07-13T13:08:10;3.47;;;1.45;;
7116;SDS011;3600;48.568;7.870;2023-07-13T13:10:38;2.80;;;1.58;;
7116;SDS011;3600;48.568;7.870;2023-07-13T13:13:05;1.63;;;1.20;;
7116;SDS011;3600;48.568;7.870;2023-07-13T13:15:31;1.77;;;1.50;;
7116;SDS011;3600;48.568;7.870;2023-07-13T13:17:59;6.85;;;1.48;;
7116;SDS011;3600;48.568;7.870;2023-07-13T13:20:26;2.15;;;1.33;;
7116;SDS011;3600;48.568;7.870;2023-07-13T13:22:53;5.43;;;1.55;;
7116;SDS011;3600;48.568;7.870;2023-07-13T13:25:21;1.73;;;1.50;;
7116;SDS011;3600;48.568;7.870;2023-07-13T13:27:49;1.20;;;1.10;;
7116;SDS011;3600;48.568;7.870;2023-07-13T13:30:16;2.40;;;1.00;;
7116;SDS011;3600;48.568;7.870;2023-07-13T13:32:45;2.08;;;1.73;;
7116;SDS011;3600;48.568;7.870;2023-07-13T13:35:18;3.75;;;1.60;;
7116;SDS011;3600;48.568;7.870;2023-07-13T13:37:46;3.55;;;1.45;;
7116;SDS011;3600;48.568;7.870;2023-07-13T13:40:17;2.20;;;1.27;;
7116;SDS011;3600;48.568;7.870;2023-07-13T13:42:46;3.70;;;1.10;;
7116;SDS011;3600;48.568;7.870;2023-07-13T13:45:13;1.77;;;1.10;;
7116;SDS011;3600;48.568;7.870;2023-07-13T13:47:40;2.67;;;0.93;;
7116;SDS011;3600;48.568;7.870;2023-07-13T13:50:27;4.90;;;1.40;;
7116;SDS011;3600;48.568;7.870;2023-07-13T13:52:54;2.15;;;1.23;;
7116;SDS011;3600;48.568;7.870;2023-07-13T13:55:21;1.50;;;1.17;;
7116;SDS011;3600;48.568;7.870;2023-07-13T13:57:50;3.33;;;1.25;;
7116;SDS011;3600;48.568;7.870;2023-07-13T14:00:17;2.33;;;1.20;;
7116;SDS011;3600;48.568;7.870;2023-07-13T14:02:44;1.50;;;1.00;;
7116;SDS011;3600;48.568;7.870;2023-07-13T14:05:20;0.90;;;0.90;;
7116;SDS011;3600;48.568;7.870;2023-07-13T14:07:49;1.63;;;1.25;;
7116;SDS011;3600;48.568;7.870;2023-07-13T14:10:17;3.60;;;1.27;;
7116;SDS011;3600;48.568;7.870;2023-07-13T14:12:46;1.70;;;1.20;;
7116;SDS011;3600;48.568;7.870;2023-07-13T14:17:52;1.83;;;1.27;;
7116;SDS011;3600;48.568;7.870;2023-07-13T14:20:20;1.73;;;1.25;;
7116;SDS011;3600;48.568;7.870;2023-07-13T14:22:53;1.98;;;1.10;;
7116;SDS011;3600;48.568;7.870;2023-07-13T14:25:21;1.42;;;1.10;;
7116;SDS011;3600;48.568;7.870;2023-07-13T14:27:49;4.07;;;1.45;;
7116;SDS011;3600;48.568;7.870;2023-07-13T14:30:22;1.25;;;1.13;;
7116;SDS011;3600;48.568;7.870;2023-07-13T14:32:48;2.40;;;1.10;;
7116;SDS011;3600;48.568;7.870;2023-07-13T14:35:17;2.28;;;1.00;;
7116;SDS011;3600;48.568;7.870;2023-07-13T14:37:50;2.08;;;1.52;;
7116;SDS011;3600;48.568;7.870;2023-07-13T14:40:19;1.10;;;1.00;;
7116;SDS011;3600;48.568;7.870;2023-07-13T14:42:52;2.53;;;1.40;;
7116;SDS011;3600;48.568;7.870;2023-07-13T14:45:19;2.03;;;1.30;;
7116;SDS011;3600;48.568;7.870;2023-07-13T14:47:47;3.08;;;1.27;;
7116;SDS011;3600;48.568;7.870;2023-07-13T14:50:22;1.98;;;1.10;;
7116;SDS011;3600;48.568;7.870;2023-07-13T14:52:54;2.83;;;1.05;;
7116;SDS011;3600;48.568;7.870;2023-07-13T14:55:21;1.58;;;1.48;;
7116;SDS011;3600;48.568;7.870;2023-07-13T14:57:48;4.35;;;1.70;;
7116;SDS011;3600;48.568;7.870;2023-07-13T15:00:17;2.72;;;1.35;;
7116;SDS011;3600;48.568;7.870;2023-07-13T15:02:52;1.40;;;1.30;;
7116;SDS011;3600;48.568;7.870;2023-07-13T15:05:22;2.03;;;1.42;;
7116;SDS011;3600;48.568;7.870;2023-07-13T15:07:51;1.88;;;1.13;;
7116;SDS011;3600;48.568;7.870;2023-07-13T15:10:23;1.58;;;1.40;;
7116;SDS011;3600;48.568;7.870;2023-07-13T15:13:01;1.42;;;1.13;;
7116;SDS011;3600;48.568;7.870;2023-07-13T15:15:49;1.45;;;1.17;;
7116;SDS011;3600;48.568;7.870;2023-07-13T15:18:21;3.30;;;1.52;;
7116;SDS011;3600;48.568;7.870;2023-07-13T15:20:51;2.40;;;1.30;;
7116;SDS011;3600;48.568;7.870;2023-07-13T15:23:22;3.50;;;1.40;;
7116;SDS011;3600;48.568;7.870;2023-07-13T15:25:49;1.30;;;1.20;;
7116;SDS011;3600;48.568;7.870;2023-07-13T15:28:16;2.92;;;1.50;;
7116;SDS011;3600;48.568;7.870;2023-07-13T15:30:47;3.38;;;1.23;;
7116;SDS011;3600;48.568;7.870;2023-07-13T15:33:17;3.47;;;1.45;;
7116;SDS011;3600;48.568;7.870;2023-07-13T15:35:50;2.40;;;1.33;;
7116;SDS011;3600;48.568;7.870;2023-07-13T15:38:18;5.35;;;1.17;;
7116;SDS011;3600;48.568;7.870;2023-07-13T15:40:47;2.35;;;1.60;;
7116;SDS011;3600;48.568;7.870;2023-07-13T15:43:16;2.08;;;1.50;;
7116;SDS011;3600;48.568;7.870;2023-07-13T15:45:45;2.05;;;1.42;;
7116;SDS011;3600;48.568;7.870;2023-07-13T15:48:14;2.03;;;1.23;;
7116;SDS011;3600;48.568;7.870;2023-07-13T15:50:50;4.72;;;1.42;;
7116;SDS011;3600;48.568;7.870;2023-07-13T15:53:24;4.07;;;1.35;;
7116;SDS011;3600;48.568;7.870;2023-07-13T15:55:53;3.80;;;1.50;;
7116;SDS011;3600;48.568;7.870;2023-07-13T15:58:20;2.78;;;1.38;;
7116;SDS011;3600;48.568;7.870;2023-07-13T16:00:47;2.15;;;1.67;;
7116;SDS011;3600;48.568;7.870;2023-07-13T16:03:17;1.75;;;1.20;;
7116;SDS011;3600;48.568;7.870;2023-07-13T16:05:46;2.45;;;1.38;;
7116;SDS011;3600;48.568;7.870;2023-07-13T16:08:22;3.35;;;1.40;;
7116;SDS011;3600;48.568;7.870;2023-07-13T16:10:53;1.40;;;1.30;;
7116;SDS011;3600;48.568;7.870;2023-07-13T16:13:20;1.13;;;1.02;;
7116;SDS011;3600;48.568;7.870;2023-07-13T16:15:47;2.10;;;1.20;;